createdAt,value
2022-10-09T00:01:12.385Z,9.52
2022-10-09T00:03:41.129Z,12.47
2022-10-09T00:06:09.359Z,14.30
2022-10-09T00:08:39.390Z,9.95
2022-10-09T00:11:07.312Z,15.40
2022-10-09T00:13:34.063Z,12.05
2022-10-09T00:16:04.433Z,12.80
2022-10-09T00:18:30.942Z,16.30
2022-10-09T00:20:57.521Z,10.77
2022-10-09T00:23:24.013Z,9.85
2022-10-09T00:25:52.847Z,13.98
2022-10-09T00:28:20.567Z,16.57
2022-10-09T00:30:47.193Z,16.10
2022-10-09T00:33:14.037Z,17.27
2022-10-09T00:35:40.933Z,15.18
2022-10-09T00:38:07.969Z,12.85
2022-10-09T00:40:36.059Z,10.67
2022-10-09T00:43:03.717Z,9.48
2022-10-09T00:45:31.477Z,14.43
2022-10-09T00:48:01.650Z,15.60
2022-10-09T00:50:40.369Z,11.05
2022-10-09T00:53:08.030Z,16.30
2022-10-09T00:55:35.824Z,12.15
2022-10-09T00:58:02.518Z,16.38
2022-10-09T01:00:29.544Z,18.45
2022-10-09T01:02:56.268Z,12.77
2022-10-09T01:05:34.909Z,13.00
2022-10-09T01:08:22.214Z,10.68
2022-10-09T01:11:22.822Z,15.13
2022-10-09T01:14:00.841Z,13.95
2022-10-09T01:16:31.042Z,12.18
2022-10-09T01:19:05.421Z,15.63
2022-10-09T01:22:13.463Z,14.98
2022-10-09T01:24:45.721Z,17.02
2022-10-09T01:27:21.931Z,14.18
2022-10-09T01:29:59.159Z,13.00
2022-10-09T01:32:32.534Z,16.40
2022-10-09T01:35:00.351Z,14.50
2022-10-09T01:37:29.256Z,12.38
2022-10-09T01:39:56.554Z,18.05
2022-10-09T01:42:26.191Z,18.60
2022-10-09T01:44:52.686Z,17.83
2022-10-09T01:47:21.368Z,16.08
2022-10-09T01:50:24.964Z,18.58
2022-10-09T01:52:59.492Z,18.65
2022-10-09T01:55:38.131Z,25.52
2022-10-09T01:58:15.485Z,14.63
2022-10-09T02:01:02.774Z,16.10
2022-10-09T02:03:30.488Z,14.32
2022-10-09T02:05:58.150Z,13.60
2022-10-09T02:08:25.909Z,14.10
2022-10-09T02:10:56.383Z,15.97
2022-10-09T02:13:23.427Z,17.17
2022-10-09T02:16:00.508Z,18.35
2022-10-09T02:18:37.449Z,16.73
2022-10-09T02:21:11.217Z,18.13
2022-10-09T02:23:40.158Z,18.97
2022-10-09T02:26:07.156Z,19.50
2022-10-09T02:28:33.771Z,15.77
2022-10-09T02:31:18.785Z,15.60
2022-10-09T02:33:45.392Z,17.75
2022-10-09T02:36:11.908Z,18.33
2022-10-09T02:38:38.371Z,21.83
2022-10-09T02:41:04.947Z,16.95
2022-10-09T02:43:31.433Z,24.38
2022-10-09T02:45:58.177Z,23.65
2022-10-09T02:48:24.747Z,22.30
2022-10-09T02:50:51.213Z,17.52
2022-10-09T02:53:17.718Z,21.25
2022-10-09T02:55:44.224Z,19.50
2022-10-09T02:58:10.770Z,17.73
2022-10-09T03:00:38.325Z,15.60
2022-10-09T03:03:04.921Z,16.23
2022-10-09T03:05:31.424Z,18.67
2022-10-09T03:07:58.671Z,16.85
2022-10-09T03:10:25.158Z,18.52
2022-10-09T03:12:51.818Z,17.97
2022-10-09T03:15:18.410Z,25.27
2022-10-09T03:17:44.862Z,18.83
2022-10-09T03:20:11.385Z,18.45
2022-10-09T03:22:37.876Z,17.63
2022-10-09T03:25:04.637Z,22.03
2022-10-09T03:27:31.103Z,15.15
2022-10-09T03:29:58.703Z,14.48
2022-10-09T03:32:25.757Z,20.15
2022-10-09T03:34:52.299Z,17.10
2022-10-09T03:37:18.783Z,21.90
2022-10-09T03:39:45.228Z,18.73
2022-10-09T03:42:11.789Z,16.15
2022-10-09T03:44:38.296Z,20.80
2022-10-09T03:47:04.846Z,23.80
2022-10-09T03:49:31.335Z,16.10
2022-10-09T03:51:57.772Z,15.88
2022-10-09T03:54:24.260Z,22.05
2022-10-09T03:56:50.826Z,21.25
2022-10-09T03:59:17.281Z,17.58
2022-10-09T04:01:43.756Z,15.07
2022-10-09T04:04:10.190Z,19.15
2022-10-09T04:06:36.725Z,21.42
2022-10-09T04:09:03.276Z,18.80
2022-10-09T04:11:29.807Z,23.10
2022-10-09T04:13:56.265Z,20.50
2022-10-09T04:16:22.867Z,16.45
2022-10-09T04:18:49.364Z,16.65
2022-10-09T04:21:15.893Z,22.63
2022-10-09T04:23:42.459Z,17.02
2022-10-09T04:26:11.900Z,29.50
2022-10-09T04:28:39.041Z,19.73
2022-10-09T04:31:05.650Z,13.23
2022-10-09T04:33:32.314Z,16.35
2022-10-09T04:35:58.803Z,19.10
2022-10-09T04:38:25.770Z,16.17
2022-10-09T04:40:59.545Z,19.98
2022-10-09T04:43:26.700Z,20.70
2022-10-09T04:45:53.883Z,18.98
2022-10-09T04:48:20.627Z,23.90
2022-10-09T04:50:47.544Z,17.90
2022-10-09T04:53:14.955Z,16.13
2022-10-09T04:55:43.333Z,15.68
2022-10-09T04:58:12.105Z,13.43
2022-10-09T05:00:43.056Z,19.00
2022-10-09T05:03:10.700Z,13.27
2022-10-09T05:05:37.456Z,19.95
2022-10-09T05:08:04.065Z,12.75
2022-10-09T05:10:32.286Z,18.27
2022-10-09T05:12:59.436Z,20.00
2022-10-09T05:15:25.919Z,13.80
2022-10-09T05:17:52.414Z,17.23
2022-10-09T05:20:18.943Z,17.73
2022-10-09T05:22:47.284Z,13.30
2022-10-09T05:25:14.791Z,16.95
2022-10-09T05:27:41.337Z,21.63
2022-10-09T05:30:08.934Z,18.65
2022-10-09T05:32:35.565Z,16.05
2022-10-09T05:35:02.048Z,17.80
2022-10-09T05:37:28.575Z,18.40
2022-10-09T05:39:55.176Z,14.30
2022-10-09T05:42:21.638Z,17.95
2022-10-09T05:44:48.173Z,15.77
2022-10-09T05:47:17.857Z,14.90
2022-10-09T05:49:44.330Z,16.95
2022-10-09T05:52:10.838Z,24.40
2022-10-09T05:54:37.297Z,13.85
2022-10-09T05:57:04.950Z,11.60
2022-10-09T05:59:31.482Z,17.15
2022-10-09T06:01:59.098Z,18.73
2022-10-09T06:04:25.845Z,17.53
2022-10-09T06:06:52.807Z,15.98
2022-10-09T06:09:23.102Z,18.10
2022-10-09T06:11:50.930Z,16.75
2022-10-09T06:14:17.808Z,16.27
2022-10-09T06:16:45.605Z,25.80
2022-10-09T06:19:14.507Z,26.80
2022-10-09T06:21:41.261Z,19.73
2022-10-09T06:24:08.333Z,21.73
2022-10-09T06:26:35.053Z,20.98
2022-10-09T06:29:03.077Z,18.50
2022-10-09T06:31:32.076Z,17.67
2022-10-09T06:34:00.890Z,19.52
2022-10-09T06:36:29.905Z,16.65
2022-10-09T06:38:58.759Z,16.25
2022-10-09T06:41:26.926Z,15.53
2022-10-09T06:44:01.870Z,18.60
2022-10-09T06:46:32.748Z,25.55
2022-10-09T06:49:00.810Z,17.85
2022-10-09T06:51:29.030Z,22.25
2022-10-09T06:53:57.539Z,21.70
2022-10-09T06:56:26.092Z,24.00
2022-10-09T06:58:52.975Z,19.63
2022-10-09T07:01:24.433Z,23.58
2022-10-09T07:03:56.932Z,19.08
2022-10-09T07:06:26.200Z,20.10
2022-10-09T07:08:55.355Z,23.23
2022-10-09T07:11:33.607Z,23.45
2022-10-09T07:14:03.432Z,20.73
2022-10-09T07:16:36.256Z,27.73
2022-10-09T07:19:07.355Z,25.03
2022-10-09T07:21:35.106Z,26.60
2022-10-09T07:24:02.656Z,24.63
2022-10-09T07:26:30.903Z,28.92
2022-10-09T07:28:57.978Z,23.38
2022-10-09T07:31:24.977Z,18.50
2022-10-09T07:33:53.432Z,21.85
2022-10-09T07:36:20.460Z,18.00
2022-10-09T07:38:52.192Z,30.17
2022-10-09T07:41:19.952Z,21.90
2022-10-09T07:43:46.510Z,17.77
2022-10-09T07:46:18.478Z,21.23
2022-10-09T07:48:45.977Z,28.67
2022-10-09T07:51:23.577Z,23.67
2022-10-09T07:53:50.673Z,27.40
2022-10-09T07:56:19.636Z,16.77
2022-10-09T07:58:51.042Z,15.48
2022-10-09T08:01:20.118Z,19.83
2022-10-09T08:03:47.537Z,16.33
2022-10-09T08:06:14.305Z,18.73
2022-10-09T08:08:40.930Z,20.80
2022-10-09T08:11:12.457Z,18.25
2022-10-09T08:13:41.248Z,15.15
2022-10-09T08:16:07.927Z,20.98
2022-10-09T08:18:35.211Z,18.13
2022-10-09T08:21:05.006Z,18.20
2022-10-09T08:23:31.673Z,17.35
2022-10-09T08:25:59.059Z,17.88
2022-10-09T08:28:25.762Z,21.15
2022-10-09T08:30:52.462Z,21.30
2022-10-09T08:33:21.926Z,23.33
2022-10-09T08:35:49.844Z,18.60
2022-10-09T08:38:37.492Z,18.38
2022-10-09T08:41:06.184Z,13.60
2022-10-09T08:43:36.634Z,17.30
2022-10-09T08:46:26.037Z,17.73
2022-10-09T08:48:53.920Z,14.55
2022-10-09T08:51:27.023Z,14.32
2022-10-09T08:53:59.982Z,13.85
2022-10-09T08:56:27.337Z,12.85
2022-10-09T08:58:54.000Z,11.40
2022-10-09T09:01:29.440Z,18.30
2022-10-09T09:04:14.699Z,17.45
2022-10-09T09:07:01.521Z,20.70
2022-10-09T09:09:40.360Z,19.27
2022-10-09T09:12:27.681Z,14.73
2022-10-09T09:15:04.474Z,13.57
2022-10-09T09:17:38.062Z,13.13
2022-10-09T09:20:17.610Z,15.02
2022-10-09T09:22:49.155Z,14.02
2022-10-09T09:25:28.447Z,11.33
2022-10-09T09:28:00.408Z,12.48
2022-10-09T09:30:50.571Z,17.27
2022-10-09T09:33:29.750Z,13.88
2022-10-09T09:36:18.285Z,12.50
2022-10-09T09:39:24.959Z,12.87
2022-10-09T09:41:31.425Z,11.30
2022-10-09T09:43:57.933Z,8.77
2022-10-09T09:46:28.977Z,11.75
2022-10-09T09:48:55.648Z,13.10
2022-10-09T09:51:29.212Z,10.90
2022-10-09T09:54:25.944Z,12.18
2022-10-09T09:57:18.342Z,11.50
2022-10-09T09:59:45.378Z,9.18
2022-10-09T10:02:12.395Z,8.98
2022-10-09T10:04:49.369Z,13.10
2022-10-09T10:07:30.999Z,13.02
2022-10-09T10:10:09.383Z,13.80
2022-10-09T10:12:57.220Z,12.32
2022-10-09T10:15:29.462Z,12.00
2022-10-09T10:18:00.905Z,13.20
2022-10-09T10:20:28.932Z,9.10
2022-10-09T10:22:57.905Z,12.18
2022-10-09T10:25:32.097Z,9.20
2022-10-09T10:28:11.509Z,14.10
2022-10-09T10:30:38.909Z,14.17
2022-10-09T10:33:19.271Z,8.60
2022-10-09T10:35:49.194Z,13.25
2022-10-09T10:38:25.464Z,16.10
2022-10-09T10:41:29.402Z,8.80
2022-10-09T10:44:23.060Z,7.30
2022-10-09T10:46:58.762Z,10.10
2022-10-09T10:49:28.415Z,11.20
2022-10-09T10:52:00.965Z,8.18
2022-10-09T10:54:39.765Z,9.07
2022-10-09T10:57:24.143Z,8.50
2022-10-09T10:59:56.901Z,9.65
2022-10-09T11:02:58.407Z,11.63
2022-10-09T11:05:27.738Z,11.57
2022-10-09T11:08:00.502Z,9.13
2022-10-09T11:10:35.876Z,12.90
2022-10-09T11:13:19.806Z,7.40
2022-10-09T11:16:14.202Z,7.43
2022-10-09T11:18:43.516Z,6.03
2022-10-09T11:21:31.171Z,8.15
2022-10-09T11:24:31.809Z,9.03
2022-10-09T11:27:21.367Z,7.90
2022-10-09T11:30:09.753Z,5.55
2022-10-09T11:32:51.486Z,5.90
2022-10-09T11:35:23.106Z,9.48
2022-10-09T11:38:08.119Z,7.47
2022-10-09T11:40:42.787Z,10.45
2022-10-09T11:43:24.563Z,8.02
2022-10-09T11:46:09.630Z,5.03
2022-10-09T11:48:48.585Z,7.40
2022-10-09T11:51:28.688Z,6.10
2022-10-09T11:53:55.450Z,12.20
2022-10-09T11:56:24.546Z,9.15
2022-10-09T11:59:03.893Z,6.85
2022-10-09T12:01:39.067Z,9.85
2022-10-09T12:04:08.459Z,12.20
2022-10-09T12:06:59.204Z,6.07
2022-10-09T12:09:34.867Z,11.65
2022-10-09T12:12:07.199Z,6.68
2022-10-09T12:14:36.805Z,6.82
2022-10-09T12:17:23.583Z,6.13
2022-10-09T12:19:54.520Z,10.25
2022-10-09T12:22:30.541Z,7.88
2022-10-09T12:25:03.603Z,9.05
2022-10-09T12:27:40.346Z,15.88
2022-10-09T12:30:13.623Z,8.63
2022-10-09T12:32:55.043Z,6.38
2022-10-09T12:35:25.818Z,5.90
2022-10-09T12:37:52.505Z,8.88
2022-10-09T12:40:25.585Z,10.82
2022-10-09T12:42:53.927Z,8.37
2022-10-09T12:45:31.743Z,8.27
2022-10-09T12:48:08.078Z,10.82
2022-10-09T12:50:35.522Z,10.60
2022-10-09T12:53:06.074Z,7.75
2022-10-09T12:55:35.881Z,11.53
2022-10-09T12:58:27.561Z,10.63
2022-10-09T13:00:56.976Z,8.10
2022-10-09T13:03:35.542Z,7.30
2022-10-09T13:06:15.461Z,7.20
2022-10-09T13:08:42.249Z,13.83
2022-10-09T13:11:08.700Z,8.35
2022-10-09T13:13:35.491Z,5.97
2022-10-09T13:16:11.137Z,7.18
2022-10-09T13:18:38.337Z,5.65
2022-10-09T13:21:22.893Z,6.07
2022-10-09T13:23:49.402Z,7.38
2022-10-09T13:26:24.240Z,8.90
2022-10-09T13:28:51.391Z,7.25
2022-10-09T13:31:19.152Z,8.25
2022-10-09T13:33:47.135Z,7.97
2022-10-09T13:36:15.233Z,6.32
2022-10-09T13:38:42.132Z,7.80
2022-10-09T13:41:20.356Z,6.30
2022-10-09T13:43:47.902Z,9.95
2022-10-09T13:46:16.013Z,8.83
2022-10-09T13:48:43.102Z,16.35
2022-10-09T13:51:09.765Z,8.20
2022-10-09T13:53:36.337Z,6.65
2022-10-09T13:56:03.178Z,7.70
2022-10-09T13:58:29.800Z,8.70
2022-10-09T14:00:56.523Z,7.40
2022-10-09T14:03:23.030Z,8.80
2022-10-09T14:05:49.786Z,5.75
2022-10-09T14:08:16.310Z,7.13
2022-10-09T14:10:43.971Z,5.33
2022-10-09T14:13:11.057Z,5.43
2022-10-09T14:15:41.592Z,7.57
2022-10-09T14:18:09.010Z,8.55
2022-10-09T14:20:35.762Z,7.18
2022-10-09T14:23:02.500Z,5.03
2022-10-09T14:25:29.242Z,6.38
2022-10-09T14:27:55.882Z,8.05
2022-10-09T14:30:22.521Z,6.10
2022-10-09T14:32:49.368Z,9.52
2022-10-09T14:35:19.340Z,5.30
2022-10-09T14:37:47.857Z,3.70
2022-10-09T14:40:14.423Z,7.03
2022-10-09T14:42:41.081Z,9.40
2022-10-09T14:45:09.103Z,6.97
2022-10-09T14:47:35.716Z,4.10
2022-10-09T14:50:02.276Z,7.07
2022-10-09T14:52:28.826Z,6.10
2022-10-09T14:54:55.336Z,8.00
2022-10-09T14:57:22.071Z,8.07
2022-10-09T14:59:48.550Z,5.50
2022-10-09T15:02:16.281Z,6.35
2022-10-09T15:04:42.883Z,7.28
2022-10-09T15:07:09.435Z,8.82
2022-10-09T15:09:35.928Z,6.15
2022-10-09T15:12:02.400Z,5.73
2022-10-09T15:14:29.147Z,6.88
2022-10-09T15:16:55.686Z,10.35
2022-10-09T15:19:22.230Z,10.05
2022-10-09T15:21:48.769Z,7.35
2022-10-09T15:24:15.346Z,6.97
2022-10-09T15:26:42.040Z,5.80
2022-10-09T15:29:09.083Z,5.00
2022-10-09T15:31:38.602Z,6.32
2022-10-09T15:34:07.511Z,6.40
2022-10-09T15:36:36.883Z,7.10
2022-10-09T15:39:06.061Z,7.82
2022-10-09T15:41:35.497Z,7.63
2022-10-09T15:44:06.348Z,14.23
2022-10-09T15:46:33.041Z,8.35
2022-10-09T15:48:59.727Z,5.83
2022-10-09T15:51:26.626Z,9.07
2022-10-09T15:53:53.207Z,6.82
2022-10-09T15:56:23.132Z,8.30
2022-10-09T15:58:50.586Z,7.28
2022-10-09T16:01:18.341Z,9.00
2022-10-09T16:03:45.476Z,5.90
2022-10-09T16:06:14.638Z,7.88
2022-10-09T16:08:41.953Z,7.05
2022-10-09T16:11:11.589Z,7.22
2022-10-09T16:13:40.066Z,6.43
2022-10-09T16:16:09.519Z,8.68
2022-10-09T16:18:36.145Z,9.18
2022-10-09T16:21:14.347Z,6.47
2022-10-09T16:23:42.177Z,10.55
2022-10-09T16:26:09.096Z,9.73
2022-10-09T16:28:35.860Z,9.43
2022-10-09T16:31:02.983Z,11.20
2022-10-09T16:33:29.650Z,8.27
2022-10-09T16:36:07.228Z,8.45
2022-10-09T16:38:33.798Z,7.80
2022-10-09T16:41:02.535Z,9.85
2022-10-09T16:43:32.554Z,8.90
2022-10-09T16:46:11.417Z,7.95
2022-10-09T16:48:38.117Z,9.85
2022-10-09T16:51:09.526Z,8.10
2022-10-09T16:53:36.069Z,10.43
2022-10-09T16:56:16.263Z,11.95
2022-10-09T16:58:43.879Z,9.20
2022-10-09T17:01:11.229Z,11.68
2022-10-09T17:03:40.599Z,11.47
2022-10-09T17:06:16.148Z,9.23
2022-10-09T17:08:42.669Z,9.55
2022-10-09T17:11:11.851Z,14.50
2022-10-09T17:13:38.578Z,13.40
2022-10-09T17:16:15.710Z,10.90
2022-10-09T17:18:45.072Z,12.70
2022-10-09T17:21:16.510Z,13.68
2022-10-09T17:23:43.290Z,12.80
2022-10-09T17:26:15.466Z,12.60
2022-10-09T17:28:43.075Z,10.13
2022-10-09T17:31:14.188Z,10.35
2022-10-09T17:33:42.939Z,14.25
2022-10-09T17:36:11.111Z,15.00
2022-10-09T17:38:37.823Z,10.32
2022-10-09T17:41:05.586Z,11.67
2022-10-09T17:43:32.764Z,10.70
2022-10-09T17:46:00.588Z,18.83
2022-10-09T17:48:28.026Z,15.65
2022-10-09T17:50:57.917Z,10.77
2022-10-09T17:53:25.037Z,15.00
2022-10-09T17:55:54.143Z,12.98
2022-10-09T17:58:22.196Z,14.02
2022-10-09T18:00:49.759Z,12.82
2022-10-09T18:03:17.519Z,10.07
2022-10-09T18:05:46.324Z,10.97
2022-10-09T18:08:13.948Z,9.15
2022-10-09T18:10:40.562Z,16.45
2022-10-09T18:13:08.517Z,16.55
2022-10-09T18:15:39.885Z,13.10
2022-10-09T18:18:06.832Z,12.37
2022-10-09T18:20:34.770Z,14.90
2022-10-09T18:23:01.346Z,16.58
2022-10-09T18:25:27.879Z,12.80
2022-10-09T18:27:54.547Z,23.30
2022-10-09T18:30:21.144Z,18.93
2022-10-09T18:32:48.775Z,24.23
2022-10-09T18:35:15.598Z,16.48
2022-10-09T18:37:42.103Z,15.52
2022-10-09T18:40:08.888Z,18.05
2022-10-09T18:42:35.787Z,20.43
2022-10-09T18:45:03.196Z,19.58
2022-10-09T18:47:33.508Z,21.25
2022-10-09T18:50:02.751Z,20.48
2022-10-09T18:52:30.301Z,12.05
2022-10-09T18:54:58.711Z,12.03
2022-10-09T18:57:26.750Z,14.13
2022-10-09T18:59:55.527Z,14.73
2022-10-09T19:02:26.315Z,10.77
2022-10-09T19:04:54.733Z,12.25
2022-10-09T19:07:21.315Z,13.43
2022-10-09T19:09:56.320Z,16.60
2022-10-09T19:12:24.482Z,12.02
2022-10-09T19:14:51.358Z,10.57
2022-10-09T19:17:17.934Z,10.88
2022-10-09T19:19:44.522Z,10.43
2022-10-09T19:22:16.466Z,9.60
2022-10-09T19:24:44.827Z,12.95
2022-10-09T19:27:11.562Z,9.52
2022-10-09T19:29:38.315Z,9.10
2022-10-09T19:32:04.847Z,10.43
2022-10-09T19:34:31.775Z,12.35
2022-10-09T19:36:58.595Z,10.68
2022-10-09T19:39:25.233Z,16.92
2022-10-09T19:41:51.848Z,9.30
2022-10-09T19:44:18.673Z,13.80
2022-10-09T19:46:45.836Z,12.38
2022-10-09T19:49:12.372Z,8.30
2022-10-09T19:51:39.493Z,12.68
2022-10-09T19:54:07.628Z,12.50
2022-10-09T19:56:35.347Z,12.83
2022-10-09T19:59:05.197Z,16.60
2022-10-09T20:01:35.243Z,10.77
2022-10-09T20:04:07.559Z,12.32
2022-10-09T20:06:37.078Z,12.52
2022-10-09T20:09:04.918Z,10.87
2022-10-09T20:11:31.465Z,10.23
2022-10-09T20:13:58.796Z,12.85
2022-10-09T20:16:25.873Z,10.50
2022-10-09T20:18:54.579Z,11.52
2022-10-09T20:21:21.154Z,10.67
2022-10-09T20:23:47.670Z,13.10
2022-10-09T20:26:17.869Z,11.48
2022-10-09T20:28:44.942Z,11.52
2022-10-09T20:31:18.030Z,11.55
2022-10-09T20:33:45.914Z,10.73
2022-10-09T20:36:25.965Z,14.30
2022-10-09T20:38:56.066Z,14.45
2022-10-09T20:41:22.871Z,10.35
2022-10-09T20:43:53.726Z,12.20
2022-10-09T20:46:21.365Z,15.17
2022-10-09T20:48:48.296Z,11.52
2022-10-09T20:51:15.342Z,12.35
2022-10-09T20:53:42.039Z,14.40
2022-10-09T20:56:11.638Z,11.73
2022-10-09T20:58:39.177Z,19.83
2022-10-09T21:01:07.416Z,13.70
2022-10-09T21:03:35.621Z,20.77
2022-10-09T21:06:07.174Z,19.52
2022-10-09T21:08:33.881Z,18.77
2022-10-09T21:11:00.587Z,14.13
2022-10-09T21:13:27.131Z,16.83
2022-10-09T21:15:53.953Z,18.67
2022-10-09T21:18:20.479Z,18.02
2022-10-09T21:20:48.366Z,18.35
2022-10-09T21:23:17.852Z,12.87
2022-10-09T21:25:49.860Z,18.92
2022-10-09T21:28:18.455Z,14.95
2022-10-09T21:30:45.055Z,11.75
2022-10-09T21:33:12.139Z,19.65
2022-10-09T21:35:47.228Z,11.30
2022-10-09T21:38:17.484Z,20.27
2022-10-09T21:40:44.211Z,11.27
2022-10-09T21:43:10.831Z,14.82
2022-10-09T21:45:39.087Z,11.98
2022-10-09T21:48:06.658Z,13.60
2022-10-09T21:50:34.597Z,15.18
2022-10-09T21:53:01.084Z,12.55
2022-10-09T21:55:27.650Z,14.55
2022-10-09T21:57:54.502Z,10.93
2022-10-09T22:00:21.452Z,15.80
2022-10-09T22:02:48.220Z,12.82
2022-10-09T22:05:15.003Z,10.85
2022-10-09T22:07:41.654Z,13.95
2022-10-09T22:10:08.591Z,13.88
2022-10-09T22:12:35.188Z,12.70
2022-10-09T22:15:01.749Z,13.02
2022-10-09T22:17:28.261Z,12.52
2022-10-09T22:19:54.753Z,13.57
2022-10-09T22:22:23.719Z,12.57
2022-10-09T22:24:53.030Z,16.33
2022-10-09T22:27:19.946Z,13.82
2022-10-09T22:29:46.466Z,13.90
2022-10-09T22:32:12.924Z,10.05
2022-10-09T22:34:39.449Z,13.23
2022-10-09T22:37:05.913Z,12.07
2022-10-09T22:39:32.962Z,15.73
2022-10-09T22:41:59.427Z,16.77
2022-10-09T22:44:25.923Z,15.43
2022-10-09T22:46:52.389Z,17.90
2022-10-09T22:49:18.941Z,15.00
2022-10-09T22:51:45.876Z,13.15
2022-10-09T22:54:13.070Z,11.82
2022-10-09T22:56:42.250Z,13.20
2022-10-09T22:59:11.567Z,14.00
2022-10-09T23:01:40.645Z,13.20
2022-10-09T23:04:11.318Z,12.05
2022-10-09T23:06:38.282Z,12.05
2022-10-09T23:09:06.622Z,11.15
2022-10-09T23:11:33.305Z,14.85
2022-10-09T23:14:00.298Z,14.27
2022-10-09T23:16:28.544Z,12.52
2022-10-09T23:18:57.687Z,14.27
2022-10-09T23:21:24.510Z,16.40
2022-10-09T23:23:51.952Z,12.48
2022-10-09T23:26:24.176Z,16.47
2022-10-09T23:28:56.211Z,12.07
2022-10-09T23:31:23.478Z,12.73
2022-10-09T23:33:50.044Z,12.68
2022-10-09T23:36:20.311Z,17.08
2022-10-09T23:38:47.307Z,11.13
2022-10-09T23:41:17.962Z,12.43
2022-10-09T23:43:45.270Z,16.10
2022-10-09T23:46:20.394Z,10.80
2022-10-09T23:48:47.894Z,14.52
2022-10-09T23:51:14.930Z,13.50
2022-10-09T23:53:42.156Z,13.70
2022-10-09T23:56:38.066Z,11.77
2022-10-09T23:59:08.581Z,12.75
